Latest Weather Observations for Hervey Bay

IDQ60801

Issued at 9:32 am EST Friday 17 August 2018 (issued every 10 minutes, with the page automatically refreshed every 10 minutes)

About weather observations | Map of weather stations | Latest weather observations for QLD | Other Formats
Station Details ID: 040405 Name: HERVEY BAY AIRPORT Lat: -25.32 Lon: 152.88 Height: 12.98 m
Data from the previous 72 hours. | See also: Recent months at Hervey Bay
Date/Time
EST
Temp
°C
App
Temp
°C
Dew
Point
°C
Rel
Hum
%
Delta-T
°C
Wind Press
QNH
hPa
Press
MSL
hPa
Rain since
9am
mm
Dir  Spd
km/h
Gust
km/h
Spd
kts
Gust
kts
17/09:30am 20.9 19.3 10.1 50 5.8 NW 9 13 5 7 1015.9 1015.8 0.0
17/09:00am 19.8 18.3 11.8 60 4.4 NW 11 15 6 8 1015.9 1015.8 0.0
17/08:30am 19.0 17.0 12.7 67 3.5 NW 15 20 8 11 1015.8 1015.7 0.0
17/08:00am 17.9 16.8 14.4 80 2.0 NW 13 15 7 8 1015.7 1015.6 0.0
17/07:30am 15.2 15.9 14.6 96 0.3 SW 4 6 2 3 1015.6 1015.5 0.0
17/07:15am 13.1 13.0 12.2 94 0.5 SSW 4 6 2 3 1015.5 1015.4 0.0
17/07:00am 12.1 12.4 11.0 93 0.6 CALM 0 4 0 2 1015.5 1015.4 0.0
17/06:30am 9.5 8.6 7.9 90 0.8 SSW 2 6 1 3 1015.3 1015.2 0.0
17/06:04am 10.1 8.5 8.7 91 0.7 SSW 7 7 4 4 1015.0 1014.9 0.0
17/06:00am 10.2 8.8 8.8 91 0.7 SSW 6 9 3 5 1014.9 1014.8 0.0
17/05:33am 10.6 10.5 9.4 92 0.6 CALM 0 0 0 0 1014.5 1014.4 0.0
17/05:30am 10.2 9.9 8.8 91 0.7 CALM 0 0 0 0 1014.5 1014.4 0.0
17/05:00am 11.1 9.8 9.9 92 0.6 N 7 9 4 5 1014.1 1014.0 0.0
17/04:46am 11.1 9.9 9.7 91 0.7 N 6 7 3 4 1014.0 1013.9 0.0
17/04:30am 11.7 10.5 10.4 92 0.7 N 7 11 4 6 1013.9 1013.8 0.0
17/04:22am 11.3 10.0 9.9 91 0.7 N 7 9 4 5 1013.9 1013.8 0.0
17/04:00am 11.0 9.7 9.1 88 0.9 N 6 6 3 3 1013.9 1013.8 0.0
17/03:30am 11.4 10.8 9.1 86 1.1 N 2 7 1 4 1013.9 1013.8 0.0
17/03:24am 11.7 11.6 9.4 86 1.2 CALM 0 0 0 0 1013.9 1013.8 0.0
17/03:12am 12.0 11.9 9.4 84 1.3 CALM 0 0 0 0 1013.9 1013.8 0.0
17/03:00am 12.9 13.2 10.8 87 1.1 CALM 0 0 0 0 1013.9 1013.8 0.0
17/02:45am 14.2 14.9 12.2 88 1.1 CALM 0 4 0 2 1014.0 1013.9 0.0
17/02:30am 14.0 13.2 11.2 83 1.5 WNW 6 7 3 4 1014.0 1013.9 0.0
17/02:00am 17.0 17.2 14.6 86 1.4 NW 7 9 4 5 1014.1 1014.0 0.0
17/01:30am 18.3 17.3 15.7 85 1.5 NNW 15 19 8 10 1014.0 1013.9 0.0
17/01:00am 18.6 17.1 15.3 81 1.9 NNW 17 20 9 11 1014.2 1014.1 0.0
17/12:30am 18.4 18.0 15.1 81 1.9 N 11 17 6 9 1014.5 1014.4 0.0
17/12:00am 18.1 17.6 14.8 81 1.9 NNW 11 13 6 7 1014.6 1014.5 0.0
 
Date/Time
EST
Temp
°C
App
Temp
°C
Dew
Point
°C
Rel
Hum
%
Delta-T
°C
Wind Press
QNH
hPa
Press
MSL
hPa
Rain since
9am
mm
Dir  Spd
km/h
Gust
km/h
Spd
kts
Gust
kts
16/11:30pm 18.6 17.8 15.1 80 2.0 NNW 13 17 7 9 1014.5 1014.4 0.0
16/11:00pm 18.4 18.0 15.1 81 1.9 NNW 11 17 6 9 1014.8 1014.7 0.0
16/10:30pm 18.7 17.6 15.4 81 1.9 NNW 15 20 8 11 1014.9 1014.8 0.0
16/10:00pm 18.6 17.6 15.5 82 1.8 N 15 22 8 12 1014.8 1014.7 0.0
16/09:30pm 18.4 17.6 15.1 81 1.9 N 13 19 7 10 1014.9 1014.8 0.0
16/09:00pm 18.5 17.8 15.4 82 1.8 N 13 17 7 9 1014.7 1014.6 0.0
16/08:30pm 18.6 17.9 15.3 81 1.9 N 13 17 7 9 1014.6 1014.5 0.0
16/08:00pm 18.8 18.1 15.3 80 2.1 N 13 19 7 10 1014.5 1014.4 0.0
16/07:30pm 19.0 18.0 15.7 81 2.0 N 15 20 8 11 1014.3 1014.2 0.0
16/07:00pm 18.9 17.4 15.4 80 2.1 N 17 28 9 15 1013.8 1013.7 0.0
16/06:30pm 19.2 17.7 15.3 78 2.3 N 17 24 9 13 1013.6 1013.5 0.0
16/06:00pm 19.4 17.8 15.1 76 2.5 N 17 26 9 14 1013.4 1013.3 0.0
16/05:30pm 19.4 17.3 14.6 74 2.8 N 19 28 10 15 1012.9 1012.8 0.0
16/05:00pm 20.0 17.9 14.8 72 3.0 N 19 24 10 13 1013.0 1012.9 0.0
16/04:30pm 20.7 18.5 15.0 70 3.4 N 20 28 11 15 1013.0 1012.9 0.0
16/04:00pm 21.4 19.4 15.0 67 3.8 N 19 30 10 16 1013.1 1013.0 0.0
16/03:30pm 21.5 18.9 14.9 66 3.9 N 22 32 12 17 1013.2 1013.1 0.0
16/03:00pm 22.0 20.3 14.6 63 4.4 N 17 26 9 14 1013.4 1013.3 0.0
16/02:30pm 22.0 19.5 14.1 61 4.6 N 20 30 11 16 1013.6 1013.5 0.0
16/02:00pm 22.5 20.1 14.4 60 4.8 N 20 33 11 18 1014.0 1013.9 0.0
16/01:30pm 22.1 19.1 13.7 59 4.9 N 22 30 12 16 1014.3 1014.2 0.0
16/01:00pm 21.9 19.2 13.5 59 4.8 N 20 30 11 16 1014.8 1014.7 0.0
16/12:30pm 21.3 18.5 13.2 60 4.6 N 20 30 11 16 1015.3 1015.2 0.0
16/12:00pm 21.7 18.7 12.5 56 5.2 NNW 20 30 11 16 1015.7 1015.6 0.0
16/11:30am 22.0 19.2 12.5 54 5.4 N 19 26 10 14 1016.3 1016.2 0.0
16/11:00am 21.7 18.8 12.3 55 5.3 NNW 19 26 10 14 1016.8 1016.7 0.0
16/10:30am 20.7 17.2 12.1 58 4.8 NNW 22 30 12 16 1017.2 1017.1 0.0
16/10:00am 20.8 16.5 12.2 58 4.8 NNW 26 33 14 18 1017.0 1016.9 0.0
16/09:30am 20.4 16.9 12.1 59 4.6 NW 22 32 12 17 1017.8 1017.7 0.0
16/09:00am 19.9 17.1 12.7 63 4.0 NW 19 26 10 14 1018.1 1018.0 0.0
16/08:30am 18.9 16.1 12.6 67 3.5 NW 19 24 10 13 1017.9 1017.8 0.0
16/08:00am 17.4 16.7 13.3 77 2.3 WNW 9 15 5 8 1017.9 1017.8 0.0
16/07:30am 15.8 15.9 14.5 92 0.7 NW 7 9 4 5 1017.7 1017.6 0.0
16/07:00am 10.8 9.6 9.6 92 0.6 WNW 6 6 3 3 1017.5 1017.4 0.0
16/06:30am 8.6 6.6 7.2 91 0.7 WNW 7 9 4 5 1017.5 1017.4 0.0
16/06:00am 8.4 6.4 6.4 87 0.9 NW 6 6 3 3 1017.2 1017.1 0.0
16/05:30am 9.0 8.4 7.3 89 0.8 CALM 0 0 0 0 1017.0 1016.9 0.0
16/05:00am 9.4 8.9 7.7 89 0.8 CALM 0 0 0 0 1016.8 1016.7 0.0
16/04:30am 9.9 8.2 7.7 86 1.1 WNW 6 7 3 4 1016.6 1016.5 0.0
16/04:00am 10.9 9.4 9.2 89 0.8 WNW 7 9 4 5 1016.6 1016.5 0.0
16/03:30am 11.0 9.0 8.6 85 1.2 WNW 9 11 5 6 1016.6 1016.5 0.0
16/03:00am 12.7 11.6 10.6 87 1.1 WNW 7 7 4 4 1016.9 1016.8 0.0
16/02:30am 14.3 13.2 12.0 86 1.2 W 9 11 5 6 1017.3 1017.2 0.0
16/02:00am 16.7 16.1 13.4 81 1.9 NW 9 13 5 7 1017.3 1017.2 0.0
16/01:30am 17.7 16.5 14.0 79 2.1 NNW 13 19 7 10 1017.3 1017.2 0.0
16/01:00am 17.5 16.2 13.6 78 2.2 NNW 13 20 7 11 1017.6 1017.5 0.0
16/12:30am 17.3 16.0 13.6 79 2.1 NNW 13 17 7 9 1017.7 1017.6 0.0
16/12:00am 17.7 16.3 13.4 76 2.4 NNW 13 19 7 10 1017.9 1017.8 0.0
 
Date/Time
EST
Temp
°C
App
Temp
°C
Dew
Point
°C
Rel
Hum
%
Delta-T
°C
Wind Press
QNH
hPa
Press
MSL
hPa
Rain since
9am
mm
Dir  Spd
km/h
Gust
km/h
Spd
kts
Gust
kts
15/11:30pm 18.0 16.6 13.5 75 2.5 NNW 13 17 7 9 1018.2 1018.1 0.0
15/11:00pm 17.9 16.4 13.2 74 2.6 N 13 17 7 9 1018.3 1018.2 0.0
15/10:30pm 18.0 16.6 13.3 74 2.7 N 13 17 7 9 1018.5 1018.5 0.0
15/10:00pm 18.2 16.4 13.3 73 2.8 N 15 20 8 11 1018.6 1018.6 0.0
15/09:30pm 18.1 16.8 13.8 76 2.5 N 13 17 7 9 1018.7 1018.7 0.0
15/09:00pm 18.0 16.6 13.5 75 2.5 N 13 19 7 10 1018.7 1018.7 0.0
15/08:30pm 18.2 16.8 13.5 74 2.7 N 13 17 7 9 1018.8 1018.8 0.0
15/08:00pm 17.9 16.4 13.0 73 2.7 N 13 19 7 10 1018.8 1018.8 0.0
15/07:30pm 18.0 16.4 12.9 72 2.9 N 13 17 7 9 1018.7 1018.7 0.0
15/07:00pm 18.1 16.9 12.8 71 3.0 N 11 17 6 9 1018.5 1018.5 0.0
15/06:30pm 18.6 16.9 12.6 68 3.4 N 13 19 7 10 1018.4 1018.4 0.0
15/06:00pm 18.5 16.8 12.3 67 3.4 N 13 19 7 10 1018.4 1018.4 0.0
15/05:30pm 18.9 16.8 12.4 66 3.6 N 15 24 8 13 1018.3 1018.2 0.0
15/05:00pm 19.6 17.0 12.1 62 4.2 N 17 22 9 12 1018.4 1018.4 0.0
15/04:30pm 20.4 17.9 12.4 60 4.5 N 17 22 9 12 1018.4 1018.4 0.0
15/04:00pm 20.7 17.3 12.4 59 4.7 N 22 33 12 18 1018.4 1018.4 0.0
15/03:30pm 21.2 18.1 12.1 56 5.1 N 20 30 11 16 1018.3 1018.2 0.0
15/03:00pm 21.7 18.3 11.4 52 5.7 N 20 30 11 16 1018.3 1018.2 0.0
15/02:30pm 21.8 18.7 11.5 52 5.7 N 19 24 10 13 1018.6 1018.6 0.0
15/02:00pm 21.9 18.4 11.0 50 6.0 N 20 28 11 15 1018.9 1018.9 0.0
15/01:30pm 22.0 18.5 10.8 49 6.2 N 20 28 11 15 1019.5 1019.5 0.0
15/01:00pm 22.1 18.8 10.9 49 6.2 N 19 26 10 14 1020.0 1020.0 0.0
15/12:30pm 21.6 18.8 11.3 52 5.7 NNW 17 26 9 14 1020.5 1020.5 0.0
15/12:00pm 21.4 18.2 11.4 53 5.5 NNW 19 26 10 14 1021.1 1021.1 0.0
15/11:30am 21.3 19.0 11.6 54 5.4 NNW 15 22 8 12 1021.6 1021.6 0.0
15/11:00am 21.3 19.3 11.6 54 5.4 NNW 13 22 7 12 1022.0 1022.0 0.0
15/10:30am 20.9 18.5 11.3 54 5.3 NW 15 20 8 11 1022.5 1022.5 0.0
15/10:00am 20.2 19.3 11.4 57 4.8 WNW 7 13 4 7 1022.8 1022.8 0.0
15/09:30am 18.5 17.6 11.3 63 3.9 SW 7 11 4 6 1022.9 1022.9 0.0
15/09:00am 16.9 16.0 11.2 69 3.1 SSW 7 11 4 6 1023.0 1023.0 0.0
15/08:30am 14.6 13.3 9.8 73 2.5 SSW 7 9 4 5 1023.0 1023.0 0.0
15/08:00am 13.6 12.4 10.2 80 1.8 SW 7 11 4 6 1022.9 1022.9 0.0
15/07:30am 11.1 10.4 10.2 94 0.5 SW 4 7 2 4 1022.7 1022.7 0.0
15/07:07am 8.5 6.8 7.6 94 0.4 SW 6 7 3 4 1022.5 1022.5 0.0
15/07:00am 8.0 6.9 7.1 94 0.4 SSW 2 7 1 4 1022.4 1022.4 0.0
15/06:30am 6.2 4.4 5.2 93 0.4 SSW 4 6 2 3 1022.2 1022.2 0.0
15/06:00am 5.0 2.4 3.3 89 0.7 SSW 6 7 3 4 1021.8 1021.8 0.0
15/05:59am 5.0 2.4 3.3 89 0.7 SSW 6 7 3 4 1021.8 1021.8 0.0
15/05:30am 4.9 3.0 3.1 88 0.7 SSW 2 7 1 4 1021.7 1021.7 0.0
15/05:00am 5.2 3.8 3.5 89 0.7 CALM 0 0 0 0 1021.4 1021.4 0.0
15/04:30am 5.3 3.9 3.6 89 0.7 CALM 0 0 0 0 1021.4 1021.4 0.0
15/04:00am 5.5 3.7 3.7 88 0.8 SSW 2 6 1 3 1021.3 1021.3 0.0
15/03:30am 5.5 2.8 3.7 88 0.8 SSW 7 7 4 4 1021.5 1021.5 0.0
15/03:00am 5.9 3.5 4.1 88 0.8 SSW 6 7 3 4 1021.6 1021.6 0.0
15/02:30am 6.2 3.8 4.4 88 0.8 SSW 6 7 3 4 1021.9 1021.9 0.0
15/02:00am 6.3 5.1 4.5 88 0.8 CALM 0 0 0 0 1022.0 1022.0 0.0
15/01:30am 6.4 4.0 4.4 87 0.9 SSW 6 6 3 3 1022.2 1022.2 0.0
15/01:00am 6.7 4.4 4.9 88 0.8 SSW 6 7 3 4 1022.4 1022.4 0.0
15/12:30am 6.7 4.4 4.9 88 0.8 SSW 6 7 3 4 1022.6 1022.6 0.0
15/12:00am 6.9 4.5 5.1 88 0.8 SSW 7 9 4 5 1022.7 1022.7 0.0
 
Date/Time
EST
Temp
°C
App
Temp
°C
Dew
Point
°C
Rel
Hum
%
Delta-T
°C
Wind Press
QNH
hPa
Press
MSL
hPa
Rain since
9am
mm
Dir  Spd
km/h
Gust
km/h
Spd
kts
Gust
kts
14/11:30pm 7.1 6.0 5.3 88 0.8 CALM 0 0 0 0 1022.7 1022.7 0.0
14/11:00pm 7.2 6.1 5.2 87 0.9 CALM 0 0 0 0 1022.7 1022.7 0.0
14/10:30pm 7.4 6.3 5.0 85 1.1 CALM 0 0 0 0 1022.8 1022.8 0.0
14/10:00pm 7.7 6.6 5.3 85 1.1 CALM 0 0 0 0 1023.0 1023.0 0.0
14/09:30pm 8.3 7.3 5.8 84 1.1 CALM 0 0 0 0 1022.9 1022.9 0.0
14/09:00pm 8.8 7.9 6.1 83 1.2 CALM 0 0 0 0 1023.1 1023.1 0.0
14/08:30pm 9.8 9.3 7.7 87 1.0 CALM 0 0 0 0 1023.2 1023.2 0.0
14/08:00pm 10.0 9.3 6.9 81 1.5 CALM 0 0 0 0 1023.2 1023.2 0.0
14/07:30pm 10.6 9.9 6.9 78 1.8 CALM 0 0 0 0 1022.7 1022.7 0.0
14/07:00pm 11.6 11.1 7.7 77 1.9 CALM 0 0 0 0 1022.3 1022.3 0.0
14/06:30pm 12.7 10.8 7.4 70 2.6 ESE 7 7 4 4 1022.0 1022.0 0.0
14/06:00pm 15.4 13.5 8.9 65 3.3 NNE 9 9 5 5 1021.7 1021.7 0.0
14/05:30pm 18.2 16.8 9.5 57 4.6 N 7 9 4 5 1021.7 1021.7 0.0
14/05:00pm 19.9 17.9 10.0 53 5.3 NE 11 13 6 7 1021.7 1021.7 0.0
14/04:30pm 20.8 18.1 8.8 46 6.3 E 13 19 7 10 1021.5 1021.5 0.0
14/04:00pm 21.0 17.5 8.6 45 6.5 ESE 17 19 9 10 1021.3 1021.3 0.0
14/03:30pm 21.4 18.2 8.3 43 6.9 E 15 20 8 11 1021.3 1021.3 0.0
14/03:00pm 21.8 18.9 8.0 41 7.2 ESE 13 20 7 11 1021.2 1021.2 0.0
14/02:30pm 22.1 19.3 7.1 38 7.7 ESE 11 19 6 10 1021.3 1021.3 0.0
14/02:00pm 22.3 18.8 7.3 38 7.7 E 15 20 8 11 1021.5 1021.5 0.0
14/01:30pm 22.1 18.9 6.7 37 7.9 ESE 13 19 7 10 1021.7 1021.7 0.0
14/01:00pm 21.8 19.2 7.6 40 7.3 ESE 11 19 6 10 1022.1 1022.1 0.0
14/12:30pm 21.7 18.9 8.6 43 6.9 E 13 20 7 11 1022.8 1022.8 0.0
14/12:00pm 20.9 17.9 7.5 42 6.9 E 13 17 7 9 1023.5 1023.5 0.0
14/11:30am 21.8 19.6 8.0 41 7.2 ESE 9 15 5 8 1024.0 1024.0 0.0
14/11:00am 19.9 17.2 5.5 39 7.1 SW 9 15 5 8 1024.5 1024.5 0.0
14/10:30am 19.0 14.6 4.7 39 6.9 SSW 17 20 9 11 1024.9 1024.9 0.0
14/10:00am 18.0 14.6 3.9 39 6.6 SSW 11 15 6 8 1024.8 1024.8 0.0

Other Formats:

Comma delimited format used in spreadsheet applications
http://www.bom.gov.au/fwo/IDQ60801/IDQ60801.95565.axf

JavaScript Object Notation format (JSON) in row-major order
http://www.bom.gov.au/fwo/IDQ60801/IDQ60801.95565.json